Time;durP1;ratioP1;P1;durP2;ratioP2;P2;SDS_P1;SDS_P2;PMS_P1;PMS_P2;Temp;Humidity;BMP_temperature;BMP_pressure;BME280_temperature;BME280_humidity;BME280_pressure;Samples;Min_cycle;Max_cycle;Signal;HPM_P1;HPM_P2
2022/05/30 00:02:11;;;;;;;6.53;1.98;;;;;;;;;;5054324;28;20190;-62
2022/05/30 00:04:38;;;;;;;2.72;2.10;;;;;;;;;;5054271;28;20075;-62
2022/05/30 00:07:06;;;;;;;5.65;2.08;;;;;;;;;;5054154;28;20029;-62
2022/05/30 00:09:33;;;;;;;1.98;1.77;;;;;;;;;;5057939;28;20060;-62
2022/05/30 00:11:59;;;;;;;2.78;1.70;;;;;;;;;;5054020;28;20028;-62
2022/05/30 00:14:26;;;;;;;3.13;1.50;;;;;;;;;;5054135;28;20043;-62
2022/05/30 00:16:52;;;;;;;4.68;2.20;;;;;;;;;;5053983;28;20033;-62
2022/05/30 00:19:18;;;;;;;5.30;1.70;;;;;;;;;;5054201;28;20052;-62
2022/05/30 00:21:44;;;;;;;6.93;1.83;;;;;;;;;;5053747;28;20120;-62
2022/05/30 00:24:11;;;;;;;5.05;1.90;;;;;;;;;;5064174;28;20036;-62
2022/05/30 00:26:37;;;;;;;6.28;2.13;;;;;;;;;;5053637;28;20474;-62
2022/05/30 00:29:04;;;;;;;3.13;1.92;;;;;;;;;;5053513;28;20492;-62
2022/05/30 00:31:31;;;;;;;2.28;1.50;;;;;;;;;;5053935;28;20044;-62
2022/05/30 00:33:57;;;;;;;6.03;1.52;;;;;;;;;;5052991;28;20053;-62
2022/05/30 00:36:24;;;;;;;9.27;2.45;;;;;;;;;;5052409;28;20366;-62
2022/05/30 00:38:50;;;;;;;3.28;1.60;;;;;;;;;;5053178;28;20055;-62
2022/05/30 00:41:17;;;;;;;5.35;1.98;;;;;;;;;;5053229;28;20075;-62
2022/05/30 00:43:47;;;;;;;5.30;1.73;;;;;;;;;;5053572;28;20032;-62
2022/05/30 00:46:15;;;;;;;4.28;1.90;;;;;;;;;;5053549;28;20028;-63
2022/05/30 00:48:49;;;;;;;2.35;1.58;;;;;;;;;;5053500;28;20548;-63
2022/05/30 00:51:21;;;;;;;3.55;2.30;;;;;;;;;;5052238;28;20508;-63
2022/05/30 00:53:48;;;;;;;3.77;2.00;;;;;;;;;;5049917;28;20029;-63
2022/05/30 00:56:15;;;;;;;10.30;2.00;;;;;;;;;;5052131;28;20013;-63
2022/05/30 00:58:45;;;;;;;6.47;2.08;;;;;;;;;;5053219;28;20039;-63
2022/05/30 01:01:11;;;;;;;3.05;2.10;;;;;;;;;;5051570;28;20458;-63
2022/05/30 01:06:31;;;;;;;4.13;2.00;;;;;;;;;;5069757;28;20456;-63
2022/05/30 01:08:59;;;;;;;4.53;1.90;;;;;;;;;;5055298;28;20482;-63
2022/05/30 01:11:26;;;;;;;4.47;1.73;;;;;;;;;;5058666;28;20033;-63
2022/05/30 01:13:52;;;;;;;4.45;1.92;;;;;;;;;;5052738;28;20017;-63
2022/05/30 01:16:19;;;;;;;1.45;1.35;;;;;;;;;;5052999;28;20123;-62
2022/05/30 01:18:56;;;;;;;4.03;1.92;;;;;;;;;;5062771;28;20116;-63
2022/05/30 01:21:58;;;;;;;3.75;1.75;;;;;;;;;;5051531;28;20025;-63
2022/05/30 01:24:35;;;;;;;3.38;1.52;;;;;;;;;;5007467;28;20034;-63
2022/05/30 01:27:31;;;;;;;4.72;1.70;;;;;;;;;;4974070;28;20039;-63
2022/05/30 01:29:59;;;;;;;4.18;1.60;;;;;;;;;;4974798;28;20034;-63
2022/05/30 01:32:26;;;;;;;3.20;1.85;;;;;;;;;;4991146;28;20070;-63
2022/05/30 01:34:52;;;;;;;3.35;1.40;;;;;;;;;;4974566;28;20037;-63
2022/05/30 01:37:24;;;;;;;3.70;1.50;;;;;;;;;;4970654;28;20515;-63
2022/05/30 01:39:51;;;;;;;4.45;1.85;;;;;;;;;;4975775;28;20046;-63
2022/05/30 01:42:18;;;;;;;3.90;1.63;;;;;;;;;;4963326;28;20035;-63
2022/05/30 01:44:45;;;;;;;5.75;1.48;;;;;;;;;;4955356;28;20041;-63
2022/05/30 01:47:11;;;;;;;3.33;1.73;;;;;;;;;;4966784;28;20026;-63
2022/05/30 01:49:39;;;;;;;5.57;1.80;;;;;;;;;;4973691;28;20399;-63
2022/05/30 01:52:07;;;;;;;3.55;1.60;;;;;;;;;;4967692;28;20038;-63
2022/05/30 01:54:33;;;;;;;2.10;1.60;;;;;;;;;;4986577;28;20104;-62
2022/05/30 01:57:29;;;;;;;2.42;1.58;;;;;;;;;;4974597;28;20050;-62
2022/05/30 02:00:19;;;;;;;2.10;1.40;;;;;;;;;;5002543;28;20526;-63
2022/05/30 02:02:49;;;;;;;2.53;1.50;;;;;;;;;;4990378;28;20156;-63
2022/05/30 02:05:15;;;;;;;2.65;1.73;;;;;;;;;;5049448;28;20071;-62
2022/05/30 02:07:42;;;;;;;3.33;1.95;;;;;;;;;;5047918;28;20061;-62
2022/05/30 02:10:10;;;;;;;3.42;2.25;;;;;;;;;;5048366;28;20037;-63
2022/05/30 02:12:39;;;;;;;3.58;1.52;;;;;;;;;;5048270;28;20032;-62
2022/05/30 02:15:15;;;;;;;3.25;1.65;;;;;;;;;;5046095;28;20025;-62
2022/05/30 02:17:41;;;;;;;3.63;1.45;;;;;;;;;;5050519;28;20029;-63
2022/05/30 02:20:08;;;;;;;3.67;1.70;;;;;;;;;;5049887;28;20036;-62
2022/05/30 02:22:34;;;;;;;2.78;1.40;;;;;;;;;;5048512;28;20020;-62
2022/05/30 02:25:01;;;;;;;1.88;1.52;;;;;;;;;;5049022;28;20040;-62
2022/05/30 02:27:29;;;;;;;4.93;1.83;;;;;;;;;;5049026;28;20060;-62
2022/05/30 02:29:56;;;;;;;2.63;1.60;;;;;;;;;;5049168;28;20044;-63
2022/05/30 02:32:23;;;;;;;3.97;1.77;;;;;;;;;;5048160;28;20083;-63
2022/05/30 02:37:36;;;;;;;1.83;1.15;;;;;;;;;;5080089;28;20028;-62
2022/05/30 02:40:28;;;;;;;7.53;3.40;;;;;;;;;;5048091;28;20456;-62
2022/05/30 02:43:06;;;;;;;4.15;2.08;;;;;;;;;;5047662;28;20060;-62
2022/05/30 02:45:40;;;;;;;4.32;1.80;;;;;;;;;;5031704;28;20037;-62
2022/05/30 02:48:07;;;;;;;2.38;1.63;;;;;;;;;;5035568;28;20032;-62
2022/05/30 02:50:33;;;;;;;3.83;1.70;;;;;;;;;;5030074;28;20036;-62
2022/05/30 02:53:00;;;;;;;5.38;1.50;;;;;;;;;;5032234;28;20118;-62
2022/05/30 02:55:46;;;;;;;4.30;1.75;;;;;;;;;;5042796;28;20075;-63
2022/05/30 02:58:13;;;;;;;3.30;1.52;;;;;;;;;;5047984;28;20044;-63
2022/05/30 03:00:39;;;;;;;3.25;1.63;;;;;;;;;;5029443;28;20037;-62
2022/05/30 03:03:05;;;;;;;3.88;1.80;;;;;;;;;;5030242;28;20036;-62
2022/05/30 03:05:32;;;;;;;1.95;1.48;;;;;;;;;;5046093;28;20055;-62
2022/05/30 03:08:03;;;;;;;2.22;1.65;;;;;;;;;;5046493;28;20087;-63
2022/05/30 03:10:48;;;;;;;2.63;1.42;;;;;;;;;;5049385;28;20118;-62
2022/05/30 03:13:15;;;;;;;4.90;1.80;;;;;;;;;;5031671;28;20382;-63
2022/05/30 03:15:41;;;;;;;2.30;1.40;;;;;;;;;;5049073;28;20029;-63
2022/05/30 03:18:08;;;;;;;5.20;1.40;;;;;;;;;;5046961;28;20120;-62
2022/05/30 03:20:34;;;;;;;6.43;1.60;;;;;;;;;;5049590;28;20036;-62
2022/05/30 03:23:02;;;;;;;4.97;1.55;;;;;;;;;;5051637;28;20021;-63
2022/05/30 03:25:37;;;;;;;2.58;1.60;;;;;;;;;;5055079;28;20079;-62
2022/05/30 03:28:04;;;;;;;4.47;1.67;;;;;;;;;;5047956;28;20079;-62
2022/05/30 03:30:30;;;;;;;4.50;2.00;;;;;;;;;;5048215;28;20033;-62
2022/05/30 03:32:57;;;;;;;3.95;1.52;;;;;;;;;;5053525;28;20025;-62
2022/05/30 03:35:23;;;;;;;2.08;1.52;;;;;;;;;;5056764;28;20025;-63
2022/05/30 03:37:57;;;;;;;1.73;1.60;;;;;;;;;;5053305;28;20027;-63
2022/05/30 03:40:58;;;;;;;2.97;1.67;;;;;;;;;;5012626;28;20034;-63
2022/05/30 03:43:43;;;;;;;2.53;1.60;;;;;;;;;;5021199;28;20041;-62
2022/05/30 03:46:09;;;;;;;3.45;1.98;;;;;;;;;;4996108;28;20060;-63
2022/05/30 03:48:35;;;;;;;5.72;1.83;;;;;;;;;;4995258;28;20092;-62
2022/05/30 03:51:04;;;;;;;4.70;1.80;;;;;;;;;;5028026;28;20022;-62
2022/05/30 03:53:30;;;;;;;3.03;1.70;;;;;;;;;;4995514;28;20038;-62
2022/05/30 03:55:56;;;;;;;4.72;2.03;;;;;;;;;;5028512;28;20121;-63
2022/05/30 03:58:23;;;;;;;7.80;1.70;;;;;;;;;;4995663;28;20042;-62
2022/05/30 04:00:50;;;;;;;2.42;1.67;;;;;;;;;;4993465;28;20612;-63
2022/05/30 04:03:18;;;;;;;3.35;1.60;;;;;;;;;;5009016;28;20429;-62
2022/05/30 04:05:44;;;;;;;4.15;1.73;;;;;;;;;;4995213;28;20478;-62
2022/05/30 04:08:11;;;;;;;4.05;1.65;;;;;;;;;;4995924;28;20038;-63
2022/05/30 04:10:45;;;;;;;2.35;1.88;;;;;;;;;;5001352;28;20532;-62
2022/05/30 04:13:30;;;;;;;5.13;2.00;;;;;;;;;;5012415;28;20037;-63
2022/05/30 04:16:15;;;;;;;2.83;1.95;;;;;;;;;;5049724;28;20040;-63
2022/05/30 04:18:42;;;;;;;2.72;1.80;;;;;;;;;;5052171;28;20096;-62
2022/05/30 04:21:12;;;;;;;2.78;1.70;;;;;;;;;;5046758;28;20029;-62
2022/05/30 04:23:43;;;;;;;3.60;1.77;;;;;;;;;;5075472;28;20459;-62
2022/05/30 04:26:15;;;;;;;6.93;2.45;;;;;;;;;;5052701;28;20535;-63
2022/05/30 04:28:46;;;;;;;5.15;2.30;;;;;;;;;;5050645;28;20358;-62
2022/05/30 04:31:30;;;;;;;2.60;2.20;;;;;;;;;;5042995;28;20171;-63
2022/05/30 04:33:56;;;;;;;6.22;1.98;;;;;;;;;;5051428;28;20505;-62
2022/05/30 04:36:22;;;;;;;4.40;2.28;;;;;;;;;;5050681;28;20390;-62
2022/05/30 04:38:53;;;;;;;3.42;2.00;;;;;;;;;;5052282;28;20013;-62
2022/05/30 04:41:34;;;;;;;3.42;1.58;;;;;;;;;;5043430;28;20044;-62
2022/05/30 04:44:33;;;;;;;3.65;2.22;;;;;;;;;;5022450;28;20508;-63
2022/05/30 04:47:02;;;;;;;2.67;1.83;;;;;;;;;;5053234;28;20037;-62
2022/05/30 04:49:28;;;;;;;4.25;2.33;;;;;;;;;;5053580;28;20032;-62
2022/05/30 04:51:54;;;;;;;4.60;1.77;;;;;;;;;;5049731;28;20044;-63
2022/05/30 04:54:21;;;;;;;3.40;1.85;;;;;;;;;;5051841;28;20036;-63
2022/05/30 04:57:06;;;;;;;3.08;1.77;;;;;;;;;;5038468;28;20090;-63
2022/05/30 04:59:39;;;;;;;4.82;2.00;;;;;;;;;;5047206;28;20021;-63
2022/05/30 05:02:06;;;;;;;6.57;2.10;;;;;;;;;;5046714;28;20021;-63
2022/05/30 05:04:36;;;;;;;6.13;1.98;;;;;;;;;;5049225;28;20052;-62
2022/05/30 05:07:03;;;;;;;4.18;2.15;;;;;;;;;;5049304;28;20029;-62
2022/05/30 05:09:35;;;;;;;7.68;2.60;;;;;;;;;;5045475;28;20026;-63
2022/05/30 05:12:19;;;;;;;5.82;1.73;;;;;;;;;;5053296;28;20048;-63
2022/05/30 05:15:17;;;;;;;4.47;2.22;;;;;;;;;;5041492;28;20076;-62
2022/05/30 05:18:06;;;;;;;4.97;1.98;;;;;;;;;;5051236;28;20115;-63
2022/05/30 05:20:38;;;;;;;5.18;2.00;;;;;;;;;;5045734;28;20037;-63
2022/05/30 05:23:04;;;;;;;4.40;1.80;;;;;;;;;;5049898;28;20024;-63
2022/05/30 05:25:49;;;;;;;3.28;2.35;;;;;;;;;;5050561;28;20028;-63
2022/05/30 05:28:26;;;;;;;3.65;1.85;;;;;;;;;;5049754;28;20481;-63
2022/05/30 05:30:52;;;;;;;3.92;2.20;;;;;;;;;;5042371;28;20032;-63
2022/05/30 05:33:19;;;;;;;6.32;2.30;;;;;;;;;;5049562;28;20052;-63
2022/05/30 05:35:46;;;;;;;5.50;2.15;;;;;;;;;;5048257;28;20102;-63
2022/05/30 05:38:12;;;;;;;3.50;2.30;;;;;;;;;;5050010;28;20027;-63
2022/05/30 05:40:52;;;;;;;3.00;2.10;;;;;;;;;;5049171;28;20029;-63
2022/05/30 05:43:19;;;;;;;3.75;2.85;;;;;;;;;;5051281;28;20036;-63
2022/05/30 05:45:46;;;;;;;2.90;2.15;;;;;;;;;;5040351;28;20025;-63
2022/05/30 05:48:14;;;;;;;8.80;2.78;;;;;;;;;;5044584;28;20424;-63
2022/05/30 05:50:41;;;;;;;12.52;3.47;;;;;;;;;;5048731;28;20122;-63
2022/05/30 05:53:07;;;;;;;5.50;3.78;;;;;;;;;;5039376;28;20025;-63
2022/05/30 05:55:34;;;;;;;6.68;2.83;;;;;;;;;;5041042;28;20037;-63
2022/05/30 05:58:02;;;;;;;3.83;2.40;;;;;;;;;;5038740;28;20049;-63
2022/05/30 06:00:29;;;;;;;6.18;3.25;;;;;;;;;;5035946;28;20108;-63
2022/05/30 06:02:56;;;;;;;5.10;2.90;;;;;;;;;;5045967;28;20506;-63
2022/05/30 06:05:39;;;;;;;10.43;3.17;;;;;;;;;;5044722;28;20496;-63
2022/05/30 06:08:25;;;;;;;5.75;3.45;;;;;;;;;;5038935;28;20416;-62
2022/05/30 06:11:05;;;;;;;6.35;2.75;;;;;;;;;;5043538;28;20060;-63
2022/05/30 06:13:38;;;;;;;6.40;2.90;;;;;;;;;;5071384;28;20403;-63
2022/05/30 06:16:08;;;;;;;8.85;3.20;;;;;;;;;;5041773;28;20025;-63
2022/05/30 06:18:47;;;;;;;6.88;2.90;;;;;;;;;;5044132;28;20115;-63
2022/05/30 06:21:13;;;;;;;9.63;3.28;;;;;;;;;;5039542;28;20355;-63
2022/05/30 06:23:46;;;;;;;8.52;3.25;;;;;;;;;;5049981;28;20023;-63
2022/05/30 06:26:32;;;;;;;7.53;3.17;;;;;;;;;;5007823;28;20030;-63
2022/05/30 06:29:17;;;;;;;6.88;3.17;;;;;;;;;;5008113;28;20041;-63
2022/05/30 06:31:44;;;;;;;6.20;3.75;;;;;;;;;;5006943;28;20046;-63
2022/05/30 06:34:11;;;;;;;6.25;3.42;;;;;;;;;;5023583;28;20034;-63
2022/05/30 06:36:41;;;;;;;11.00;3.78;;;;;;;;;;4985657;28;20465;-63
2022/05/30 06:39:10;;;;;;;11.02;3.63;;;;;;;;;;4990708;28;20093;-63
2022/05/30 06:41:42;;;;;;;7.05;3.83;;;;;;;;;;4990724;28;20033;-63
2022/05/30 06:44:10;;;;;;;8.13;3.83;;;;;;;;;;4973847;28;20042;-63
2022/05/30 06:46:55;;;;;;;9.38;4.40;;;;;;;;;;4990722;28;20141;-63
2022/05/30 06:49:40;;;;;;;13.18;4.03;;;;;;;;;;4990491;28;20049;-63
2022/05/30 06:52:11;;;;;;;8.10;4.72;;;;;;;;;;4974122;28;20058;-63
2022/05/30 06:54:37;;;;;;;11.30;4.53;;;;;;;;;;4973997;28;20546;-63
2022/05/30 06:59:49;;;;;;;8.50;3.08;;;;;;;;;;4978094;28;20054;-63
2022/05/30 07:02:16;;;;;;;6.75;3.10;;;;;;;;;;4994119;28;20033;-63
2022/05/30 07:05:00;;;;;;;5.60;2.97;;;;;;;;;;5035802;28;20083;-61
2022/05/30 07:07:46;;;;;;;6.70;3.00;;;;;;;;;;5035830;28;20044;-61
2022/05/30 07:10:28;;;;;;;7.10;3.13;;;;;;;;;;5045446;28;20033;-61
2022/05/30 07:13:26;;;;;;;10.80;2.63;;;;;;;;;;5040053;28;20049;-61
2022/05/30 07:15:52;;;;;;;5.95;2.55;;;;;;;;;;5055345;28;20047;-61
2022/05/30 07:18:23;;;;;;;3.67;2.20;;;;;;;;;;5053812;28;20366;-61
2022/05/30 07:20:56;;;;;;;3.65;2.17;;;;;;;;;;5054136;28;20028;-61
2022/05/30 07:23:28;;;;;;;5.63;2.30;;;;;;;;;;5055285;28;20035;-61
2022/05/30 07:26:16;;;;;;;10.20;1.80;;;;;;;;;;5035334;28;20056;-61
2022/05/30 07:29:01;;;;;;;9.35;2.40;;;;;;;;;;5035738;28;20124;-61
2022/05/30 07:31:45;;;;;;;4.40;1.65;;;;;;;;;;5035338;28;20511;-61
2022/05/30 07:34:31;;;;;;;6.60;2.35;;;;;;;;;;5035036;28;20044;-61
2022/05/30 07:37:15;;;;;;;4.75;2.10;;;;;;;;;;5037697;28;20171;-61
2022/05/30 07:39:57;;;;;;;3.80;1.60;;;;;;;;;;5051689;28;20492;-61
2022/05/30 07:42:37;;;;;;;4.72;1.40;;;;;;;;;;5052665;28;20024;-61
2022/05/30 07:45:11;;;;;;;3.97;1.60;;;;;;;;;;5052643;28;20500;-61
2022/05/30 07:47:56;;;;;;;2.22;1.73;;;;;;;;;;5072591;28;20036;-61
2022/05/30 07:50:43;;;;;;;6.20;2.13;;;;;;;;;;5049061;28;20036;-61
2022/05/30 07:53:28;;;;;;;4.15;2.15;;;;;;;;;;5054931;28;20032;-61
2022/05/30 07:56:11;;;;;;;3.83;1.80;;;;;;;;;;5053593;28;20021;-61
2022/05/30 07:58:38;;;;;;;4.90;1.52;;;;;;;;;;5053746;28;20029;-61
2022/05/30 08:01:05;;;;;;;3.28;1.70;;;;;;;;;;5053415;28;20032;-61
2022/05/30 08:03:33;;;;;;;4.60;1.80;;;;;;;;;;5053320;28;20029;-61
2022/05/30 08:06:25;;;;;;;6.25;2.03;;;;;;;;;;5053059;28;20032;-61
2022/05/30 08:09:09;;;;;;;3.17;1.73;;;;;;;;;;5053280;28;20052;-61
2022/05/30 08:11:46;;;;;;;6.50;2.17;;;;;;;;;;5037677;28;20029;-61
2022/05/30 08:14:29;;;;;;;5.30;1.80;;;;;;;;;;5044945;28;20037;-61
2022/05/30 08:16:56;;;;;;;9.13;2.03;;;;;;;;;;5054490;28;20405;-61
2022/05/30 08:19:23;;;;;;;6.38;2.15;;;;;;;;;;5052801;28;20474;-61
2022/05/30 08:21:50;;;;;;;5.95;1.80;;;;;;;;;;5052761;28;20029;-61
2022/05/30 08:24:16;;;;;;;7.10;1.90;;;;;;;;;;5052558;28;20402;-61
2022/05/30 08:26:47;;;;;;;4.25;2.28;;;;;;;;;;5053080;28;20108;-61
2022/05/30 08:29:37;;;;;;;4.03;1.77;;;;;;;;;;5051373;28;20025;-61
2022/05/30 08:32:07;;;;;;;4.75;1.75;;;;;;;;;;5050576;28;20072;-61
2022/05/30 08:34:51;;;;;;;5.18;1.77;;;;;;;;;;5052555;28;20515;-61
2022/05/30 08:37:18;;;;;;;5.00;1.70;;;;;;;;;;5080047;28;20037;-62
2022/05/30 08:42:31;;;;;;;3.95;1.75;;;;;;;;;;5074516;28;20493;-62
2022/05/30 08:45:17;;;;;;;6.03;2.30;;;;;;;;;;5051378;28;20115;-62
2022/05/30 08:48:02;;;;;;;6.18;2.00;;;;;;;;;;5058908;28;20040;-62
2022/05/30 08:50:34;;;;;;;7.50;2.13;;;;;;;;;;5059256;28;20078;-62
2022/05/30 08:53:04;;;;;;;4.10;2.10;;;;;;;;;;5051238;28;20499;-62
2022/05/30 08:55:54;;;;;;;6.22;1.80;;;;;;;;;;5050858;28;20036;-62
2022/05/30 08:58:46;;;;;;;6.22;2.55;;;;;;;;;;5044204;28;20037;-61
2022/05/30 09:01:18;;;;;;;3.47;1.40;;;;;;;;;;5051724;28;20032;-61
2022/05/30 09:04:10;;;;;;;4.88;2.00;;;;;;;;;;5009996;28;20068;-62
2022/05/30 09:06:44;;;;;;;3.97;1.70;;;;;;;;;;5021030;28;20086;-62
2022/05/30 09:09:22;;;;;;;6.45;1.80;;;;;;;;;;5010362;28;20046;-61
2022/05/30 09:12:17;;;;;;;3.92;1.70;;;;;;;;;;4997857;28;20050;-61
2022/05/30 09:15:12;;;;;;;6.00;1.85;;;;;;;;;;4998781;28;20044;-61
2022/05/30 09:17:41;;;;;;;5.18;1.35;;;;;;;;;;5011145;28;20382;-61
2022/05/30 09:20:10;;;;;;;2.92;1.60;;;;;;;;;;5011413;28;20040;-62
2022/05/30 09:22:38;;;;;;;3.58;1.65;;;;;;;;;;5010601;28;20100;-62
2022/05/30 09:28:12;;;;;;;3.20;1.75;;;;;;;;;;4992877;28;20033;-61
2022/05/30 09:31:23;;;;;;;7.07;1.98;;;;;;;;;;4959425;28;20046;-61
2022/05/30 09:34:41;;;;;;;3.90;1.50;;;;;;;;;;4962686;28;20499;-61
2022/05/30 09:37:25;;;;;;;2.47;1.48;;;;;;;;;;4962354;28;20080;-61
2022/05/30 09:40:01;;;;;;;3.17;1.38;;;;;;;;;;4979780;28;20144;-62
2022/05/30 09:42:31;;;;;;;4.68;1.52;;;;;;;;;;4970441;28;20046;-61
2022/05/30 09:44:59;;;;;;;2.17;1.08;;;;;;;;;;4970838;28;20430;-61
2022/05/30 09:48:05;;;;;;;5.45;1.48;;;;;;;;;;4989817;28;20025;-62
2022/05/30 09:50:46;;;;;;;5.07;1.00;;;;;;;;;;4972657;28;20041;-62
2022/05/30 09:53:13;;;;;;;2.92;1.40;;;;;;;;;;4983666;28;20030;-62
2022/05/30 09:55:51;;;;;;;3.85;1.65;;;;;;;;;;4972232;28;20835;-62
2022/05/30 09:58:40;;;;;;;3.10;1.20;;;;;;;;;;4972865;28;20046;-62
2022/05/30 10:01:26;;;;;;;2.40;1.02;;;;;;;;;;4995124;28;20278;-62
2022/05/30 10:04:00;;;;;;;2.60;1.27;;;;;;;;;;5049494;28;20099;-62
2022/05/30 10:07:00;;;;;;;2.78;1.23;;;;;;;;;;5048480;28;20024;-62
2022/05/30 10:09:34;;;;;;;3.53;1.30;;;;;;;;;;5049602;28;20025;-62
2022/05/30 10:12:08;;;;;;;7.05;1.40;;;;;;;;;;5049740;28;20031;-62
2022/05/30 10:14:39;;;;;;;3.50;1.20;;;;;;;;;;5050263;28;20040;-62
2022/05/30 10:17:26;;;;;;;4.82;1.45;;;;;;;;;;5049134;28;20055;-61
2022/05/30 10:19:53;;;;;;;8.40;2.38;;;;;;;;;;5042751;28;20032;-62
2022/05/30 10:29:54;;;;;;;4.45;1.75;;;;;;;;;;5019557;28;20072;-63
2022/05/30 10:33:05;;;;;;;6.32;1.77;;;;;;;;;;5001651;28;20544;-62
2022/05/30 10:35:32;;;;;;;5.25;1.85;;;;;;;;;;5020263;28;20033;-62
2022/05/30 10:38:02;;;;;;;6.00;2.42;;;;;;;;;;5024956;28;20793;-62
2022/05/30 10:40:54;;;;;;;4.35;1.90;;;;;;;;;;5014722;28;20049;-62
2022/05/30 10:43:21;;;;;;;8.37;1.80;;;;;;;;;;4957431;28;20054;-62
2022/05/30 10:45:52;;;;;;;5.95;1.83;;;;;;;;;;4959550;28;20039;-62
2022/05/30 10:48:37;;;;;;;7.10;1.90;;;;;;;;;;4957768;28;20488;-62
2022/05/30 10:51:07;;;;;;;4.50;1.60;;;;;;;;;;4972008;28;20045;-63
2022/05/30 10:53:36;;;;;;;2.28;1.38;;;;;;;;;;4970349;28;20038;-62
2022/05/30 10:56:36;;;;;;;3.10;1.33;;;;;;;;;;4973673;28;20051;-62
2022/05/30 10:59:03;;;;;;;7.47;1.40;;;;;;;;;;4971679;28;20120;-62
2022/05/30 11:01:45;;;;;;;11.57;2.05;;;;;;;;;;4983628;28;20202;-62
2022/05/30 11:04:11;;;;;;;7.43;1.60;;;;;;;;;;4968339;28;20561;-62
2022/05/30 11:06:40;;;;;;;4.78;1.52;;;;;;;;;;4985552;28;20467;-62
2022/05/30 11:09:25;;;;;;;2.05;1.58;;;;;;;;;;4976572;28;20027;-62
2022/05/30 11:12:02;;;;;;;5.45;1.67;;;;;;;;;;4981439;28;20569;-62
2022/05/30 11:14:43;;;;;;;4.20;1.27;;;;;;;;;;4983675;28;20038;-62
2022/05/30 11:17:37;;;;;;;4.20;1.75;;;;;;;;;;4967907;28;20041;-62
2022/05/30 11:20:24;;;;;;;4.15;1.20;;;;;;;;;;5014236;28;20115;-62
2022/05/30 11:22:55;;;;;;;2.42;1.20;;;;;;;;;;5041817;28;20397;-62
2022/05/30 11:25:30;;;;;;;5.82;1.35;;;;;;;;;;5070132;28;20049;-62
2022/05/30 11:28:15;;;;;;;6.32;1.30;;;;;;;;;;5046662;28;20024;-62
2022/05/30 11:31:02;;;;;;;6.00;1.30;;;;;;;;;;5050408;28;20037;-62
2022/05/30 11:33:31;;;;;;;4.85;1.23;;;;;;;;;;5049012;28;20025;-62
2022/05/30 11:35:57;;;;;;;6.80;1.30;;;;;;;;;;5049397;28;20024;-62
2022/05/30 11:38:26;;;;;;;5.22;1.60;;;;;;;;;;5049913;28;20029;-61
2022/05/30 11:41:07;;;;;;;2.35;1.20;;;;;;;;;;5049819;28;20029;-61
2022/05/30 11:43:49;;;;;;;4.82;1.60;;;;;;;;;;5045736;28;20021;-61
2022/05/30 11:46:26;;;;;;;6.13;1.85;;;;;;;;;;5045335;28;20035;-61
2022/05/30 11:49:19;;;;;;;4.38;1.23;;;;;;;;;;5052953;28;20044;-61
2022/05/30 11:51:51;;;;;;;6.33;1.70;;;;;;;;;;5048518;28;20041;-61
2022/05/30 11:54:23;;;;;;;4.50;1.02;;;;;;;;;;5053117;28;20021;-61
2022/05/30 11:57:02;;;;;;;5.97;1.42;;;;;;;;;;5052943;28;20136;-61
2022/05/30 11:59:47;;;;;;;4.65;1.20;;;;;;;;;;5046025;28;20397;-61
2022/05/30 12:02:17;;;;;;;3.85;1.42;;;;;;;;;;5052478;28;20020;-61
2022/05/30 12:04:46;;;;;;;6.50;2.00;;;;;;;;;;5053352;28;20401;-61
2022/05/30 12:07:12;;;;;;;7.13;1.38;;;;;;;;;;5052593;28;20035;-61
2022/05/30 12:09:52;;;;;;;3.00;1.45;;;;;;;;;;5053029;28;20025;-61
2022/05/30 12:12:29;;;;;;;3.25;1.25;;;;;;;;;;5053210;28;20539;-61
2022/05/30 12:15:03;;;;;;;2.90;1.10;;;;;;;;;;5052968;28;20029;-61
2022/05/30 12:23:49;;;;;;;4.00;1.20;;;;;;;;;;5052812;28;20029;-61
2022/05/30 12:26:15;;;;;;;2.25;1.35;;;;;;;;;;5052346;28;20025;-61
2022/05/30 12:28:41;;;;;;;4.05;1.27;;;;;;;;;;5052594;28;20147;-61
2022/05/30 12:31:08;;;;;;;4.00;1.55;;;;;;;;;;5056846;28;20373;-61
2022/05/30 12:33:34;;;;;;;4.43;1.25;;;;;;;;;;5052956;28;20044;-61
2022/05/30 12:36:09;;;;;;;5.38;1.20;;;;;;;;;;5067196;28;20033;-61
2022/05/30 12:38:55;;;;;;;3.17;1.25;;;;;;;;;;5053598;28;20076;-61
2022/05/30 12:41:27;;;;;;;2.63;1.30;;;;;;;;;;5053553;28;20028;-61
2022/05/30 12:43:53;;;;;;;3.92;1.33;;;;;;;;;;5054000;28;20056;-61
2022/05/30 12:46:21;;;;;;;9.40;1.40;;;;;;;;;;5053200;28;20032;-61
2022/05/30 12:49:14;;;;;;;5.35;1.10;;;;;;;;;;5053715;28;20029;-61
2022/05/30 12:52:13;;;;;;;5.70;1.10;;;;;;;;;;5053976;28;20044;-61
2022/05/30 12:54:57;;;;;;;4.85;1.30;;;;;;;;;;5011443;28;20042;-61
2022/05/30 12:57:34;;;;;;;3.90;0.98;;;;;;;;;;5011331;28;20042;-61
2022/05/30 13:00:06;;;;;;;5.10;1.50;;;;;;;;;;5011488;28;20026;-61
2022/05/30 13:02:46;;;;;;;5.35;1.85;;;;;;;;;;5011382;28;20037;-61
2022/05/30 13:05:23;;;;;;;4.07;1.30;;;;;;;;;;5011613;28;20046;-61
2022/05/30 13:07:49;;;;;;;4.25;1.20;;;;;;;;;;5011574;28;20038;-61
2022/05/30 13:10:15;;;;;;;3.60;1.15;;;;;;;;;;5011476;28;20038;-61
2022/05/30 13:12:53;;;;;;;3.97;1.40;;;;;;;;;;5011439;28;20037;-61
2022/05/30 13:15:25;;;;;;;4.13;1.17;;;;;;;;;;5010962;28;20528;-61
2022/05/30 13:17:54;;;;;;;2.75;1.13;;;;;;;;;;5011378;28;20406;-61
2022/05/30 13:20:22;;;;;;;2.22;1.08;;;;;;;;;;5011199;28;20076;-61
2022/05/30 13:22:52;;;;;;;3.40;1.40;;;;;;;;;;5011120;28;20041;-61
2022/05/30 13:25:20;;;;;;;5.65;1.00;;;;;;;;;;5011002;28;20181;-61
2022/05/30 13:27:47;;;;;;;4.70;1.38;;;;;;;;;;5011208;28;20037;-61
2022/05/30 13:30:16;;;;;;;1.63;0.90;;;;;;;;;;5028563;28;20037;-61
2022/05/30 13:32:42;;;;;;;4.78;1.33;;;;;;;;;;5056916;28;20116;-61
2022/05/30 13:35:10;;;;;;;5.63;1.17;;;;;;;;;;5052820;28;20078;-61
2022/05/30 13:37:39;;;;;;;6.32;1.20;;;;;;;;;;5052698;28;20405;-61
2022/05/30 13:40:08;;;;;;;3.35;1.00;;;;;;;;;;5052926;28;20029;-61
2022/05/30 13:42:47;;;;;;;3.72;1.20;;;;;;;;;;5051605;28;20059;-61
2022/05/30 13:45:13;;;;;;;3.47;1.27;;;;;;;;;;5052443;28;20032;-61
2022/05/30 13:47:42;;;;;;;2.72;1.10;;;;;;;;;;5051954;28;20027;-61
2022/05/30 13:50:09;;;;;;;1.95;1.00;;;;;;;;;;5052704;28;20033;-61
2022/05/30 13:52:38;;;;;;;3.40;0.80;;;;;;;;;;5051954;28;20037;-61
2022/05/30 13:55:07;;;;;;;3.17;1.20;;;;;;;;;;5051109;28;20032;-61
2022/05/30 13:57:33;;;;;;;6.13;1.58;;;;;;;;;;5044305;28;20046;-61
2022/05/30 14:00:01;;;;;;;1.80;0.90;;;;;;;;;;5052037;28;20083;-61
2022/05/30 14:02:35;;;;;;;3.53;1.50;;;;;;;;;;5051608;28;20063;-61
2022/05/30 14:05:03;;;;;;;3.33;0.98;;;;;;;;;;5052238;28;20063;-61
2022/05/30 14:07:34;;;;;;;3.95;1.33;;;;;;;;;;5051383;28;20061;-61
2022/05/30 14:10:08;;;;;;;2.20;1.10;;;;;;;;;;5072247;28;20433;-61
2022/05/30 14:12:41;;;;;;;2.85;1.17;;;;;;;;;;5052062;28;20040;-61
2022/05/30 14:15:07;;;;;;;2.65;1.10;;;;;;;;;;5053675;28;20111;-61
2022/05/30 14:17:34;;;;;;;1.60;1.20;;;;;;;;;;5053290;28;20021;-61
2022/05/30 14:20:07;;;;;;;4.07;1.33;;;;;;;;;;5052158;28;20035;-61
2022/05/30 14:22:33;;;;;;;3.83;1.75;;;;;;;;;;5052196;28;20035;-61
2022/05/30 14:25:02;;;;;;;3.85;1.20;;;;;;;;;;5051581;28;20044;-61
2022/05/30 14:27:30;;;;;;;2.70;1.00;;;;;;;;;;5052959;28;20068;-61
2022/05/30 14:30:04;;;;;;;2.20;1.10;;;;;;;;;;5051458;28;20078;-61
2022/05/30 14:32:32;;;;;;;3.70;1.05;;;;;;;;;;5050557;28;20064;-61
2022/05/30 14:35:03;;;;;;;2.92;1.10;;;;;;;;;;5051470;28;20116;-61
2022/05/30 14:37:29;;;;;;;2.40;1.02;;;;;;;;;;5048008;28;20058;-61
2022/05/30 14:40:00;;;;;;;1.92;0.95;;;;;;;;;;5059521;28;20033;-61
2022/05/30 14:42:31;;;;;;;2.22;0.90;;;;;;;;;;5055595;28;20116;-61
2022/05/30 14:45:04;;;;;;;1.90;0.90;;;;;;;;;;5048849;28;20086;-61
2022/05/30 14:47:32;;;;;;;1.33;0.70;;;;;;;;;;5050348;28;20526;-61
2022/05/30 14:50:04;;;;;;;4.25;1.05;;;;;;;;;;5049761;28;20033;-61
2022/05/30 14:52:39;;;;;;;4.73;0.93;;;;;;;;;;5050534;28;20033;-61
2022/05/30 14:55:09;;;;;;;2.83;1.17;;;;;;;;;;5050327;28;20334;-61
2022/05/30 14:57:41;;;;;;;4.78;1.25;;;;;;;;;;5049598;28;20045;-61
2022/05/30 15:00:23;;;;;;;4.35;1.13;;;;;;;;;;5049691;28;20473;-61
2022/05/30 15:05:34;;;;;;;6.07;1.50;;;;;;;;;;5049407;28;19912;-60
2022/05/30 15:08:00;;;;;;;3.63;1.45;;;;;;;;;;5050836;28;20037;-62
2022/05/30 15:10:26;;;;;;;2.80;1.17;;;;;;;;;;5058159;28;20037;-62
2022/05/30 15:12:52;;;;;;;4.13;0.93;;;;;;;;;;5050573;28;20033;-62
2022/05/30 15:15:19;;;;;;;6.57;1.23;;;;;;;;;;5049957;28;20374;-62
2022/05/30 15:17:48;;;;;;;2.67;0.90;;;;;;;;;;5051902;28;20052;-61
2022/05/30 15:20:14;;;;;;;3.58;1.02;;;;;;;;;;5053741;28;20666;-62
2022/05/30 15:22:41;;;;;;;2.50;0.80;;;;;;;;;;5053750;28;20592;-62
2022/05/30 15:25:09;;;;;;;3.03;1.20;;;;;;;;;;5053634;28;20122;-62
2022/05/30 15:27:35;;;;;;;4.10;1.10;;;;;;;;;;5053603;28;20021;-62
2022/05/30 15:30:02;;;;;;;4.07;1.02;;;;;;;;;;5056096;28;20110;-61
2022/05/30 15:32:28;;;;;;;3.10;1.20;;;;;;;;;;5053659;28;20036;-62
2022/05/30 15:34:54;;;;;;;2.83;1.17;;;;;;;;;;5053281;28;20033;-62
2022/05/30 15:37:21;;;;;;;4.15;1.08;;;;;;;;;;5054008;28;20029;-61
2022/05/30 15:39:48;;;;;;;3.58;1.10;;;;;;;;;;5052832;28;20040;-62
2022/05/30 15:42:18;;;;;;;1.80;0.98;;;;;;;;;;5054014;28;20048;-62
2022/05/30 15:44:44;;;;;;;1.23;0.90;;;;;;;;;;5046027;28;20032;-62
2022/05/30 15:47:14;;;;;;;4.35;1.15;;;;;;;;;;5053373;28;20029;-62
2022/05/30 15:49:41;;;;;;;7.25;1.13;;;;;;;;;;5053313;28;20041;-62
2022/05/30 15:52:10;;;;;;;5.50;1.00;;;;;;;;;;5053563;28;20039;-62